sensor_id;sensor_type;location;lat;lon;timestamp;temperature;humidity
5899;DHT22;2975;50.956;6.962;2022-12-05T00:03:58;3.80;99.90
5899;DHT22;2975;50.956;6.962;2022-12-05T00:06:25;3.80;99.90
5899;DHT22;2975;50.956;6.962;2022-12-05T00:08:51;3.80;99.90
5899;DHT22;2975;50.956;6.962;2022-12-05T00:11:26;3.80;99.90
5899;DHT22;2975;50.956;6.962;2022-12-05T00:13:53;3.70;99.90
5899;DHT22;2975;50.956;6.962;2022-12-05T00:16:22;3.70;99.90
5899;DHT22;2975;50.956;6.962;2022-12-05T00:18:48;3.60;99.90
5899;DHT22;2975;50.956;6.962;2022-12-05T00:21:19;3.60;99.90
5899;DHT22;2975;50.956;6.962;2022-12-05T00:23:45;3.60;99.90
5899;DHT22;2975;50.956;6.962;2022-12-05T00:26:11;3.60;99.90
5899;DHT22;2975;50.956;6.962;2022-12-05T00:28:38;3.60;99.90
5899;DHT22;2975;50.956;6.962;2022-12-05T00:31:09;3.50;99.90
5899;DHT22;2975;50.956;6.962;2022-12-05T00:33:36;3.50;99.90
5899;DHT22;2975;50.956;6.962;2022-12-05T00:36:15;3.60;99.90
5899;DHT22;2975;50.956;6.962;2022-12-05T00:38:41;3.70;99.90
5899;DHT22;2975;50.956;6.962;2022-12-05T00:41:13;3.70;99.90
5899;DHT22;2975;50.956;6.962;2022-12-05T00:43:39;3.70;99.90
5899;DHT22;2975;50.956;6.962;2022-12-05T00:46:11;3.80;99.90
5899;DHT22;2975;50.956;6.962;2022-12-05T00:48:37;3.80;99.90
5899;DHT22;2975;50.956;6.962;2022-12-05T00:51:15;3.80;99.90
5899;DHT22;2975;50.956;6.962;2022-12-05T00:53:41;3.70;99.90
5899;DHT22;2975;50.956;6.962;2022-12-05T00:56:13;3.80;99.90
5899;DHT22;2975;50.956;6.962;2022-12-05T00:58:39;3.70;99.90
5899;DHT22;2975;50.956;6.962;2022-12-05T01:01:17;3.70;99.90
5899;DHT22;2975;50.956;6.962;2022-12-05T01:03:44;3.70;99.90
5899;DHT22;2975;50.956;6.962;2022-12-05T01:06:11;3.70;99.90
5899;DHT22;2975;50.956;6.962;2022-12-05T01:08:37;3.80;99.90
5899;DHT22;2975;50.956;6.962;2022-12-05T01:11:04;3.70;99.90
5899;DHT22;2975;50.956;6.962;2022-12-05T01:13:30;3.60;99.90
5899;DHT22;2975;50.956;6.962;2022-12-05T01:15:56;3.70;99.90
5899;DHT22;2975;50.956;6.962;2022-12-05T01:18:22;3.70;99.90
5899;DHT22;2975;50.956;6.962;2022-12-05T01:20:49;3.70;99.90
5899;DHT22;2975;50.956;6.962;2022-12-05T01:23:15;3.70;99.90
5899;DHT22;2975;50.956;6.962;2022-12-05T01:25:42;3.70;99.90
5899;DHT22;2975;50.956;6.962;2022-12-05T01:28:08;3.70;99.90
5899;DHT22;2975;50.956;6.962;2022-12-05T01:30:42;3.70;99.90
5899;DHT22;2975;50.956;6.962;2022-12-05T01:33:09;3.70;99.90
5899;DHT22;2975;50.956;6.962;2022-12-05T01:35:37;3.60;99.90
5899;DHT22;2975;50.956;6.962;2022-12-05T01:38:03;3.60;99.90
5899;DHT22;2975;50.956;6.962;2022-12-05T01:40:29;3.70;99.90
5899;DHT22;2975;50.956;6.962;2022-12-05T01:42:55;3.70;99.90
5899;DHT22;2975;50.956;6.962;2022-12-05T01:47:55;3.80;99.90
5899;DHT22;2975;50.956;6.962;2022-12-05T01:50:21;3.80;99.90
5899;DHT22;2975;50.956;6.962;2022-12-05T01:52:47;3.80;99.90
5899;DHT22;2975;50.956;6.962;2022-12-05T01:55:15;3.70;99.90
5899;DHT22;2975;50.956;6.962;2022-12-05T01:57:42;3.70;99.90
5899;DHT22;2975;50.956;6.962;2022-12-05T02:00:18;3.70;99.90
5899;DHT22;2975;50.956;6.962;2022-12-05T02:02:50;3.80;99.90
5899;DHT22;2975;50.956;6.962;2022-12-05T02:05:26;3.80;99.90
5899;DHT22;2975;50.956;6.962;2022-12-05T02:07:52;3.90;99.90
5899;DHT22;2975;50.956;6.962;2022-12-05T02:10:18;3.90;99.90
5899;DHT22;2975;50.956;6.962;2022-12-05T02:12:44;3.80;99.90
5899;DHT22;2975;50.956;6.962;2022-12-05T02:18:20;3.80;99.90
5899;DHT22;2975;50.956;6.962;2022-12-05T02:21:28;3.80;99.90
5899;DHT22;2975;50.956;6.962;2022-12-05T02:23:51;3.90;99.90
5899;DHT22;2975;50.956;6.962;2022-12-05T02:32:33;4.00;99.90
5899;DHT22;2975;50.956;6.962;2022-12-05T02:35:02;4.00;99.90
5899;DHT22;2975;50.956;6.962;2022-12-05T02:45:17;4.00;99.90
5899;DHT22;2975;50.956;6.962;2022-12-05T02:47:51;4.00;99.90
5899;DHT22;2975;50.956;6.962;2022-12-05T02:50:21;4.00;99.90
5899;DHT22;2975;50.956;6.962;2022-12-05T02:52:49;3.90;99.90
5899;DHT22;2975;50.956;6.962;2022-12-05T02:55:16;3.90;99.90
5899;DHT22;2975;50.956;6.962;2022-12-05T02:57:45;3.90;99.90
5899;DHT22;2975;50.956;6.962;2022-12-05T03:00:13;3.90;99.90
5899;DHT22;2975;50.956;6.962;2022-12-05T03:02:39;4.00;99.90
5899;DHT22;2975;50.956;6.962;2022-12-05T03:07:59;4.00;99.90
5899;DHT22;2975;50.956;6.962;2022-12-05T03:10:28;4.00;99.90
5899;DHT22;2975;50.956;6.962;2022-12-05T03:13:01;4.00;99.90
5899;DHT22;2975;50.956;6.962;2022-12-05T03:15:39;4.10;99.90
5899;DHT22;2975;50.956;6.962;2022-12-05T03:18:12;4.20;99.90
5899;DHT22;2975;50.956;6.962;2022-12-05T03:20:56;4.20;99.90
5899;DHT22;2975;50.956;6.962;2022-12-05T03:23:36;4.00;99.90
5899;DHT22;2975;50.956;6.962;2022-12-05T03:37:11;3.90;99.90
5899;DHT22;2975;50.956;6.962;2022-12-05T03:39:43;3.80;99.90
5899;DHT22;2975;50.956;6.962;2022-12-05T03:42:16;3.80;99.90
5899;DHT22;2975;50.956;6.962;2022-12-05T03:44:59;3.70;99.90
5899;DHT22;2975;50.956;6.962;2022-12-05T03:47:46;3.70;99.90
5899;DHT22;2975;50.956;6.962;2022-12-05T03:50:33;3.60;99.90
5899;DHT22;2975;50.956;6.962;2022-12-05T03:53:06;3.50;99.90
5899;DHT22;2975;50.956;6.962;2022-12-05T03:55:36;3.30;99.90
5899;DHT22;2975;50.956;6.962;2022-12-05T03:58:27;3.30;99.90
5899;DHT22;2975;50.956;6.962;2022-12-05T04:00:57;3.30;99.90
5899;DHT22;2975;50.956;6.962;2022-12-05T04:03:45;3.30;99.90
5899;DHT22;2975;50.956;6.962;2022-12-05T04:06:34;3.40;99.90
5899;DHT22;2975;50.956;6.962;2022-12-05T04:09:08;3.30;99.90
5899;DHT22;2975;50.956;6.962;2022-12-05T04:11:36;3.20;99.90
5899;DHT22;2975;50.956;6.962;2022-12-05T04:14:17;3.20;99.90
5899;DHT22;2975;50.956;6.962;2022-12-05T04:16:53;3.20;99.90
5899;DHT22;2975;50.956;6.962;2022-12-05T04:19:40;3.20;99.90
5899;DHT22;2975;50.956;6.962;2022-12-05T04:22:25;3.30;99.90
5899;DHT22;2975;50.956;6.962;2022-12-05T04:24:54;3.30;99.90
5899;DHT22;2975;50.956;6.962;2022-12-05T04:30:19;3.20;99.90
5899;DHT22;2975;50.956;6.962;2022-12-05T04:33:07;3.20;99.90
5899;DHT22;2975;50.956;6.962;2022-12-05T04:36:32;3.20;99.90
5899;DHT22;2975;50.956;6.962;2022-12-05T04:39:22;3.10;99.90
5899;DHT22;2975;50.956;6.962;2022-12-05T04:41:53;3.10;99.90
5899;DHT22;2975;50.956;6.962;2022-12-05T04:44:24;3.10;99.90
5899;DHT22;2975;50.956;6.962;2022-12-05T04:46:52;3.00;99.90
5899;DHT22;2975;50.956;6.962;2022-12-05T04:49:22;3.00;99.90
5899;DHT22;2975;50.956;6.962;2022-12-05T04:51:53;3.00;99.90
5899;DHT22;2975;50.956;6.962;2022-12-05T04:54:26;3.00;99.90
5899;DHT22;2975;50.956;6.962;2022-12-05T04:56:58;3.00;99.90
5899;DHT22;2975;50.956;6.962;2022-12-05T04:59:25;3.00;99.90
5899;DHT22;2975;50.956;6.962;2022-12-05T05:01:54;3.00;99.90
5899;DHT22;2975;50.956;6.962;2022-12-05T05:04:31;3.10;99.90
5899;DHT22;2975;50.956;6.962;2022-12-05T05:06:58;3.10;99.90
5899;DHT22;2975;50.956;6.962;2022-12-05T05:09:24;3.10;99.90
5899;DHT22;2975;50.956;6.962;2022-12-05T05:11:50;3.10;99.90
5899;DHT22;2975;50.956;6.962;2022-12-05T05:14:15;3.00;99.90
5899;DHT22;2975;50.956;6.962;2022-12-05T05:16:41;3.00;99.90
5899;DHT22;2975;50.956;6.962;2022-12-05T05:19:09;3.00;99.90
5899;DHT22;2975;50.956;6.962;2022-12-05T05:21:37;3.00;99.90
5899;DHT22;2975;50.956;6.962;2022-12-05T05:24:04;3.00;99.90
5899;DHT22;2975;50.956;6.962;2022-12-05T05:26:33;3.00;99.90
5899;DHT22;2975;50.956;6.962;2022-12-05T05:28:59;3.00;99.90
5899;DHT22;2975;50.956;6.962;2022-12-05T05:31:25;3.00;99.90
5899;DHT22;2975;50.956;6.962;2022-12-05T05:33:53;3.00;99.90
5899;DHT22;2975;50.956;6.962;2022-12-05T05:36:20;3.00;99.90
5899;DHT22;2975;50.956;6.962;2022-12-05T05:38:51;3.00;99.90
5899;DHT22;2975;50.956;6.962;2022-12-05T05:41:18;3.00;99.90
5899;DHT22;2975;50.956;6.962;2022-12-05T05:43:45;3.00;99.90
5899;DHT22;2975;50.956;6.962;2022-12-05T05:46:11;2.90;99.90
5899;DHT22;2975;50.956;6.962;2022-12-05T05:48:37;2.90;99.90
5899;DHT22;2975;50.956;6.962;2022-12-05T05:51:04;2.90;99.90
5899;DHT22;2975;50.956;6.962;2022-12-05T05:53:31;2.80;99.90
5899;DHT22;2975;50.956;6.962;2022-12-05T05:55:56;2.80;99.90
5899;DHT22;2975;50.956;6.962;2022-12-05T05:58:22;2.80;99.90
5899;DHT22;2975;50.956;6.962;2022-12-05T06:00:48;2.80;99.90
5899;DHT22;2975;50.956;6.962;2022-12-05T06:03:13;2.80;99.90
5899;DHT22;2975;50.956;6.962;2022-12-05T06:05:39;2.80;99.90
5899;DHT22;2975;50.956;6.962;2022-12-05T06:08:05;2.80;99.90
5899;DHT22;2975;50.956;6.962;2022-12-05T06:10:30;2.90;99.90
5899;DHT22;2975;50.956;6.962;2022-12-05T06:12:56;2.90;99.90
5899;DHT22;2975;50.956;6.962;2022-12-05T06:15:22;2.80;99.90
5899;DHT22;2975;50.956;6.962;2022-12-05T06:17:48;2.80;99.90
5899;DHT22;2975;50.956;6.962;2022-12-05T06:20:14;2.80;99.90
5899;DHT22;2975;50.956;6.962;2022-12-05T06:22:39;2.70;99.90
5899;DHT22;2975;50.956;6.962;2022-12-05T06:25:05;2.70;99.90
5899;DHT22;2975;50.956;6.962;2022-12-05T06:27:32;2.70;99.90
5899;DHT22;2975;50.956;6.962;2022-12-05T06:29:58;2.70;99.90
5899;DHT22;2975;50.956;6.962;2022-12-05T06:32:24;2.70;99.90
5899;DHT22;2975;50.956;6.962;2022-12-05T06:34:50;2.80;99.90
5899;DHT22;2975;50.956;6.962;2022-12-05T06:37:15;2.80;99.90
5899;DHT22;2975;50.956;6.962;2022-12-05T06:39:41;2.80;99.90
5899;DHT22;2975;50.956;6.962;2022-12-05T06:42:06;2.80;99.90
5899;DHT22;2975;50.956;6.962;2022-12-05T06:44:32;2.80;99.90
5899;DHT22;2975;50.956;6.962;2022-12-05T06:46:58;2.80;99.90
5899;DHT22;2975;50.956;6.962;2022-12-05T06:49:24;2.80;99.90
5899;DHT22;2975;50.956;6.962;2022-12-05T06:51:54;2.80;99.90
5899;DHT22;2975;50.956;6.962;2022-12-05T06:54:20;2.80;99.90
5899;DHT22;2975;50.956;6.962;2022-12-05T06:56:45;2.80;99.90
5899;DHT22;2975;50.956;6.962;2022-12-05T06:59:11;2.90;99.90
5899;DHT22;2975;50.956;6.962;2022-12-05T07:01:37;2.90;99.90
5899;DHT22;2975;50.956;6.962;2022-12-05T07:04:17;2.90;99.90
5899;DHT22;2975;50.956;6.962;2022-12-05T07:06:45;2.90;99.90
5899;DHT22;2975;50.956;6.962;2022-12-05T07:09:13;2.90;99.90
5899;DHT22;2975;50.956;6.962;2022-12-05T07:11:39;2.90;99.90
5899;DHT22;2975;50.956;6.962;2022-12-05T07:14:05;2.90;99.90
5899;DHT22;2975;50.956;6.962;2022-12-05T07:16:31;2.90;99.90
5899;DHT22;2975;50.956;6.962;2022-12-05T07:18:57;2.80;99.90
5899;DHT22;2975;50.956;6.962;2022-12-05T07:21:23;2.80;99.90
5899;DHT22;2975;50.956;6.962;2022-12-05T07:23:49;2.80;99.90
5899;DHT22;2975;50.956;6.962;2022-12-05T07:26:18;2.80;99.90
5899;DHT22;2975;50.956;6.962;2022-12-05T07:28:44;2.80;99.90
5899;DHT22;2975;50.956;6.962;2022-12-05T07:31:15;2.80;99.90
5899;DHT22;2975;50.956;6.962;2022-12-05T07:33:41;2.90;99.90
5899;DHT22;2975;50.956;6.962;2022-12-05T07:36:12;2.90;99.90
5899;DHT22;2975;50.956;6.962;2022-12-05T07:38:38;2.90;99.90
5899;DHT22;2975;50.956;6.962;2022-12-05T07:41:06;2.90;99.90
5899;DHT22;2975;50.956;6.962;2022-12-05T07:43:32;2.90;99.90
5899;DHT22;2975;50.956;6.962;2022-12-05T07:46:03;3.00;99.90
5899;DHT22;2975;50.956;6.962;2022-12-05T07:48:29;3.00;99.90
5899;DHT22;2975;50.956;6.962;2022-12-05T07:50:58;3.00;99.90
5899;DHT22;2975;50.956;6.962;2022-12-05T07:53:24;3.00;99.90
5899;DHT22;2975;50.956;6.962;2022-12-05T07:55:50;3.00;99.90
5899;DHT22;2975;50.956;6.962;2022-12-05T07:58:15;3.00;99.90
5899;DHT22;2975;50.956;6.962;2022-12-05T08:00:41;3.10;99.90
5899;DHT22;2975;50.956;6.962;2022-12-05T08:03:07;3.10;99.90
5899;DHT22;2975;50.956;6.962;2022-12-05T08:05:33;3.10;99.90
5899;DHT22;2975;50.956;6.962;2022-12-05T08:07:58;3.20;99.90
5899;DHT22;2975;50.956;6.962;2022-12-05T08:10:24;3.20;99.90
5899;DHT22;2975;50.956;6.962;2022-12-05T08:12:49;3.30;99.90
5899;DHT22;2975;50.956;6.962;2022-12-05T08:15:15;3.30;99.90
5899;DHT22;2975;50.956;6.962;2022-12-05T08:17:41;3.30;99.90
5899;DHT22;2975;50.956;6.962;2022-12-05T08:20:07;3.30;99.90
5899;DHT22;2975;50.956;6.962;2022-12-05T08:22:32;3.30;99.90
5899;DHT22;2975;50.956;6.962;2022-12-05T08:24:58;3.40;99.90
5899;DHT22;2975;50.956;6.962;2022-12-05T08:27:24;3.40;99.90
5899;DHT22;2975;50.956;6.962;2022-12-05T08:29:49;3.40;99.90
5899;DHT22;2975;50.956;6.962;2022-12-05T08:32:15;3.50;99.90
5899;DHT22;2975;50.956;6.962;2022-12-05T08:34:41;3.50;99.90
5899;DHT22;2975;50.956;6.962;2022-12-05T08:37:06;3.50;99.90
5899;DHT22;2975;50.956;6.962;2022-12-05T08:39:32;3.60;99.90
5899;DHT22;2975;50.956;6.962;2022-12-05T08:41:57;3.50;99.90
5899;DHT22;2975;50.956;6.962;2022-12-05T08:44:23;3.50;99.90
5899;DHT22;2975;50.956;6.962;2022-12-05T08:46:49;3.50;99.90
5899;DHT22;2975;50.956;6.962;2022-12-05T08:49:15;3.50;99.90
5899;DHT22;2975;50.956;6.962;2022-12-05T08:51:42;3.50;99.90
5899;DHT22;2975;50.956;6.962;2022-12-05T08:54:08;3.60;99.90
5899;DHT22;2975;50.956;6.962;2022-12-05T08:56:34;3.60;99.90
5899;DHT22;2975;50.956;6.962;2022-12-05T08:59:00;3.60;99.90
5899;DHT22;2975;50.956;6.962;2022-12-05T09:01:27;3.60;99.90
5899;DHT22;2975;50.956;6.962;2022-12-05T09:03:56;3.60;99.90
5899;DHT22;2975;50.956;6.962;2022-12-05T09:06:23;3.70;99.90
5899;DHT22;2975;50.956;6.962;2022-12-05T09:08:58;3.70;99.90
5899;DHT22;2975;50.956;6.962;2022-12-05T09:11:27;3.70;99.90
5899;DHT22;2975;50.956;6.962;2022-12-05T09:13:57;3.70;99.90
5899;DHT22;2975;50.956;6.962;2022-12-05T09:16:28;3.50;99.90
5899;DHT22;2975;50.956;6.962;2022-12-05T09:18:54;3.50;99.90
5899;DHT22;2975;50.956;6.962;2022-12-05T09:21:23;3.40;99.90
5899;DHT22;2975;50.956;6.962;2022-12-05T09:23:50;3.40;99.90
5899;DHT22;2975;50.956;6.962;2022-12-05T09:26:18;3.40;99.90
5899;DHT22;2975;50.956;6.962;2022-12-05T09:28:44;3.50;99.90
5899;DHT22;2975;50.956;6.962;2022-12-05T09:31:13;3.40;99.90
5899;DHT22;2975;50.956;6.962;2022-12-05T09:33:40;3.50;99.90
5899;DHT22;2975;50.956;6.962;2022-12-05T09:36:15;3.50;99.90
5899;DHT22;2975;50.956;6.962;2022-12-05T09:38:41;3.50;99.90
5899;DHT22;2975;50.956;6.962;2022-12-05T09:50:16;3.80;99.90
5899;DHT22;2975;50.956;6.962;2022-12-05T09:55:32;4.00;99.90
5899;DHT22;2975;50.956;6.962;2022-12-05T09:58:01;4.20;99.90
5899;DHT22;2975;50.956;6.962;2022-12-05T10:00:28;4.30;99.90
5899;DHT22;2975;50.956;6.962;2022-12-05T10:12:04;4.70;99.90
5899;DHT22;2975;50.956;6.962;2022-12-05T10:16:53;4.90;99.90
5899;DHT22;2975;50.956;6.962;2022-12-05T10:19:31;5.00;99.90
5899;DHT22;2975;50.956;6.962;2022-12-05T10:22:03;5.20;99.90
5899;DHT22;2975;50.956;6.962;2022-12-05T10:24:41;5.20;99.90
5899;DHT22;2975;50.956;6.962;2022-12-05T10:27:15;5.20;99.90
5899;DHT22;2975;50.956;6.962;2022-12-05T10:30:04;5.10;99.90
5899;DHT22;2975;50.956;6.962;2022-12-05T10:32:43;5.00;99.90
5899;DHT22;2975;50.956;6.962;2022-12-05T10:35:25;4.90;99.90
5899;DHT22;2975;50.956;6.962;2022-12-05T10:37:57;4.90;99.90
5899;DHT22;2975;50.956;6.962;2022-12-05T10:40:27;5.00;99.90
5899;DHT22;2975;50.956;6.962;2022-12-05T10:42:57;5.00;99.90
5899;DHT22;2975;50.956;6.962;2022-12-05T10:45:23;4.90;99.90
5899;DHT22;2975;50.956;6.962;2022-12-05T10:47:52;4.90;99.90
5899;DHT22;2975;50.956;6.962;2022-12-05T10:50:31;4.90;99.90
5899;DHT22;2975;50.956;6.962;2022-12-05T10:52:59;4.90;99.90
5899;DHT22;2975;50.956;6.962;2022-12-05T10:55:32;4.70;99.90
5899;DHT22;2975;50.956;6.962;2022-12-05T10:58:16;4.70;99.90
5899;DHT22;2975;50.956;6.962;2022-12-05T11:01:07;4.80;99.90
5899;DHT22;2975;50.956;6.962;2022-12-05T11:03:38;4.80;99.90
5899;DHT22;2975;50.956;6.962;2022-12-05T11:06:28;4.80;99.90
5899;DHT22;2975;50.956;6.962;2022-12-05T11:09:23;4.90;99.90
5899;DHT22;2975;50.956;6.962;2022-12-05T11:14:34;4.90;99.90
5899;DHT22;2975;50.956;6.962;2022-12-05T11:17:02;4.80;99.90
5899;DHT22;2975;50.956;6.962;2022-12-05T11:19:37;4.80;99.90
5899;DHT22;2975;50.956;6.962;2022-12-05T11:22:04;4.80;99.90
5899;DHT22;2975;50.956;6.962;2022-12-05T11:24:32;4.80;99.90
5899;DHT22;2975;50.956;6.962;2022-12-05T11:27:20;4.70;99.90
5899;DHT22;2975;50.956;6.962;2022-12-05T11:30:03;4.70;99.90
5899;DHT22;2975;50.956;6.962;2022-12-05T11:32:31;4.60;99.90
5899;DHT22;2975;50.956;6.962;2022-12-05T11:35:08;4.70;99.90
5899;DHT22;2975;50.956;6.962;2022-12-05T11:44:00;4.60;99.90
5899;DHT22;2975;50.956;6.962;2022-12-05T11:52:14;4.50;99.90
5899;DHT22;2975;50.956;6.962;2022-12-05T11:55:31;4.40;99.90
5899;DHT22;2975;50.956;6.962;2022-12-05T12:12:01;4.40;99.90
5899;DHT22;2975;50.956;6.962;2022-12-05T12:17:20;4.50;99.90
5899;DHT22;2975;50.956;6.962;2022-12-05T12:22:51;4.40;99.90
5899;DHT22;2975;50.956;6.962;2022-12-05T12:25:38;4.40;99.90
5899;DHT22;2975;50.956;6.962;2022-12-05T12:33:42;4.60;99.90
5899;DHT22;2975;50.956;6.962;2022-12-05T12:44:24;5.10;99.90
5899;DHT22;2975;50.956;6.962;2022-12-05T12:47:02;5.40;99.90
5899;DHT22;2975;50.956;6.962;2022-12-05T12:52:02;5.40;99.90
5899;DHT22;2975;50.956;6.962;2022-12-05T13:02:44;4.90;99.90
5899;DHT22;2975;50.956;6.962;2022-12-05T13:05:31;4.90;99.90
5899;DHT22;2975;50.956;6.962;2022-12-05T13:08:05;5.10;99.90
5899;DHT22;2975;50.956;6.962;2022-12-05T13:10:42;5.00;99.90
5899;DHT22;2975;50.956;6.962;2022-12-05T13:13:17;4.80;99.90
5899;DHT22;2975;50.956;6.962;2022-12-05T13:15:48;4.70;99.90
5899;DHT22;2975;50.956;6.962;2022-12-05T13:18:24;4.60;99.90
5899;DHT22;2975;50.956;6.962;2022-12-05T13:20:58;4.50;99.90
5899;DHT22;2975;50.956;6.962;2022-12-05T13:23:29;4.50;99.90
5899;DHT22;2975;50.956;6.962;2022-12-05T13:25:58;4.40;99.90
5899;DHT22;2975;50.956;6.962;2022-12-05T13:28:34;4.40;99.90
5899;DHT22;2975;50.956;6.962;2022-12-05T13:31:08;4.40;99.90
5899;DHT22;2975;50.956;6.962;2022-12-05T13:33:42;4.40;99.90
5899;DHT22;2975;50.956;6.962;2022-12-05T13:36:09;4.30;99.90
5899;DHT22;2975;50.956;6.962;2022-12-05T13:38:59;4.30;99.90
5899;DHT22;2975;50.956;6.962;2022-12-05T13:41:47;4.30;99.90
5899;DHT22;2975;50.956;6.962;2022-12-05T13:44:45;4.20;99.90
5899;DHT22;2975;50.956;6.962;2022-12-05T13:47:35;4.20;99.90
5899;DHT22;2975;50.956;6.962;2022-12-05T13:53:16;4.10;99.90
5899;DHT22;2975;50.956;6.962;2022-12-05T13:55:58;4.10;99.90
5899;DHT22;2975;50.956;6.962;2022-12-05T14:00:50;4.00;99.90
5899;DHT22;2975;50.956;6.962;2022-12-05T14:06:05;4.00;99.90
5899;DHT22;2975;50.956;6.962;2022-12-05T14:19:00;3.90;99.90
5899;DHT22;2975;50.956;6.962;2022-12-05T14:21:40;3.90;99.90
5899;DHT22;2975;50.956;6.962;2022-12-05T14:24:30;3.90;99.90
5899;DHT22;2975;50.956;6.962;2022-12-05T14:27:10;3.90;99.90
5899;DHT22;2975;50.956;6.962;2022-12-05T14:29:57;3.90;99.90
5899;DHT22;2975;50.956;6.962;2022-12-05T14:32:39;3.80;99.90
5899;DHT22;2975;50.956;6.962;2022-12-05T14:35:14;3.90;99.90
5899;DHT22;2975;50.956;6.962;2022-12-05T14:37:51;3.90;99.90
5899;DHT22;2975;50.956;6.962;2022-12-05T14:40:35;3.80;99.90
5899;DHT22;2975;50.956;6.962;2022-12-05T14:43:07;3.80;99.90
5899;DHT22;2975;50.956;6.962;2022-12-05T14:48:41;3.80;99.90
5899;DHT22;2975;50.956;6.962;2022-12-05T14:54:14;3.80;99.90
5899;DHT22;2975;50.956;6.962;2022-12-05T14:56:46;3.70;99.90
5899;DHT22;2975;50.956;6.962;2022-12-05T15:01:47;3.70;99.90
5899;DHT22;2975;50.956;6.962;2022-12-05T15:04:16;3.70;99.90
5899;DHT22;2975;50.956;6.962;2022-12-05T15:06:54;3.60;99.90
5899;DHT22;2975;50.956;6.962;2022-12-05T15:09:53;3.60;99.90
5899;DHT22;2975;50.956;6.962;2022-12-05T15:12:26;3.60;99.90
5899;DHT22;2975;50.956;6.962;2022-12-05T15:17:30;3.50;99.90
5899;DHT22;2975;50.956;6.962;2022-12-05T15:20:10;3.40;99.90
5899;DHT22;2975;50.956;6.962;2022-12-05T15:22:40;3.40;99.90
5899;DHT22;2975;50.956;6.962;2022-12-05T15:27:40;3.30;99.90
5899;DHT22;2975;50.956;6.962;2022-12-05T15:30:15;3.30;99.90
5899;DHT22;2975;50.956;6.962;2022-12-05T15:32:41;3.30;99.90
5899;DHT22;2975;50.956;6.962;2022-12-05T15:35:09;3.20;99.90
5899;DHT22;2975;50.956;6.962;2022-12-05T15:40:19;3.10;99.90
5899;DHT22;2975;50.956;6.962;2022-12-05T15:42:56;3.20;99.90
5899;DHT22;2975;50.956;6.962;2022-12-05T15:45:27;3.20;99.90
5899;DHT22;2975;50.956;6.962;2022-12-05T15:48:10;3.20;99.90
5899;DHT22;2975;50.956;6.962;2022-12-05T15:50:42;3.20;99.90
5899;DHT22;2975;50.956;6.962;2022-12-05T15:53:18;3.20;99.90
5899;DHT22;2975;50.956;6.962;2022-12-05T15:56:10;3.20;99.90
5899;DHT22;2975;50.956;6.962;2022-12-05T15:59:17;3.20;99.90
5899;DHT22;2975;50.956;6.962;2022-12-05T16:01:47;3.30;99.90
5899;DHT22;2975;50.956;6.962;2022-12-05T16:04:58;3.20;99.90
5899;DHT22;2975;50.956;6.962;2022-12-05T16:07:07;3.20;99.90
5899;DHT22;2975;50.956;6.962;2022-12-05T16:09:38;3.20;99.90
5899;DHT22;2975;50.956;6.962;2022-12-05T16:12:25;3.10;99.90
5899;DHT22;2975;50.956;6.962;2022-12-05T16:14:54;3.10;99.90
5899;DHT22;2975;50.956;6.962;2022-12-05T16:17:21;3.20;99.90
5899;DHT22;2975;50.956;6.962;2022-12-05T16:19:47;3.20;99.90
5899;DHT22;2975;50.956;6.962;2022-12-05T16:24:45;3.20;99.90
5899;DHT22;2975;50.956;6.962;2022-12-05T16:27:20;3.10;99.90
5899;DHT22;2975;50.956;6.962;2022-12-05T16:32:36;3.20;99.90
5899;DHT22;2975;50.956;6.962;2022-12-05T16:35:03;3.20;99.90
5899;DHT22;2975;50.956;6.962;2022-12-05T16:37:49;3.10;99.90
5899;DHT22;2975;50.956;6.962;2022-12-05T16:40:21;3.20;99.90
5899;DHT22;2975;50.956;6.962;2022-12-05T16:43:00;3.10;99.90
5899;DHT22;2975;50.956;6.962;2022-12-05T16:45:41;3.10;99.90
5899;DHT22;2975;50.956;6.962;2022-12-05T16:50:44;3.10;99.90
5899;DHT22;2975;50.956;6.962;2022-12-05T16:53:30;3.00;99.90
5899;DHT22;2975;50.956;6.962;2022-12-05T16:55:57;3.00;99.90
5899;DHT22;2975;50.956;6.962;2022-12-05T16:58:25;3.00;99.90
5899;DHT22;2975;50.956;6.962;2022-12-05T17:00:51;3.00;99.90
5899;DHT22;2975;50.956;6.962;2022-12-05T17:03:22;2.90;99.90
5899;DHT22;2975;50.956;6.962;2022-12-05T17:05:48;2.90;99.90
5899;DHT22;2975;50.956;6.962;2022-12-05T17:08:14;2.80;99.90
5899;DHT22;2975;50.956;6.962;2022-12-05T17:10:41;2.80;99.90
5899;DHT22;2975;50.956;6.962;2022-12-05T17:13:08;2.80;99.90
5899;DHT22;2975;50.956;6.962;2022-12-05T17:15:34;2.80;99.90
5899;DHT22;2975;50.956;6.962;2022-12-05T17:18:00;2.80;99.90
5899;DHT22;2975;50.956;6.962;2022-12-05T17:20:26;2.80;99.90
5899;DHT22;2975;50.956;6.962;2022-12-05T17:22:52;2.80;99.90
5899;DHT22;2975;50.956;6.962;2022-12-05T17:25:27;2.80;99.90
5899;DHT22;2975;50.956;6.962;2022-12-05T17:27:55;2.80;99.90
5899;DHT22;2975;50.956;6.962;2022-12-05T17:30:22;2.70;99.90
5899;DHT22;2975;50.956;6.962;2022-12-05T17:32:47;2.70;99.90
5899;DHT22;2975;50.956;6.962;2022-12-05T17:35:18;2.70;99.90
5899;DHT22;2975;50.956;6.962;2022-12-05T17:37:44;2.70;99.90
5899;DHT22;2975;50.956;6.962;2022-12-05T17:40:10;2.70;99.90
5899;DHT22;2975;50.956;6.962;2022-12-05T17:42:37;2.70;99.90
5899;DHT22;2975;50.956;6.962;2022-12-05T17:45:02;2.70;99.90
5899;DHT22;2975;50.956;6.962;2022-12-05T17:47:28;2.70;99.90
5899;DHT22;2975;50.956;6.962;2022-12-05T17:49:54;2.70;99.90
5899;DHT22;2975;50.956;6.962;2022-12-05T17:52:19;2.60;99.90
5899;DHT22;2975;50.956;6.962;2022-12-05T17:54:45;2.60;99.90
5899;DHT22;2975;50.956;6.962;2022-12-05T17:57:10;2.60;99.90
5899;DHT22;2975;50.956;6.962;2022-12-05T17:59:36;2.60;99.90
5899;DHT22;2975;50.956;6.962;2022-12-05T18:02:02;2.60;99.90
5899;DHT22;2975;50.956;6.962;2022-12-05T18:04:28;2.60;99.90
5899;DHT22;2975;50.956;6.962;2022-12-05T18:06:54;2.60;99.90
5899;DHT22;2975;50.956;6.962;2022-12-05T18:09:19;2.60;99.90
5899;DHT22;2975;50.956;6.962;2022-12-05T18:11:45;2.70;99.90
5899;DHT22;2975;50.956;6.962;2022-12-05T18:14:10;2.70;99.90
5899;DHT22;2975;50.956;6.962;2022-12-05T18:16:36;2.70;99.90
5899;DHT22;2975;50.956;6.962;2022-12-05T18:19:02;2.70;99.90
5899;DHT22;2975;50.956;6.962;2022-12-05T18:21:27;2.70;99.90
5899;DHT22;2975;50.956;6.962;2022-12-05T18:23:53;2.70;99.90
5899;DHT22;2975;50.956;6.962;2022-12-05T18:26:18;2.70;99.90
5899;DHT22;2975;50.956;6.962;2022-12-05T18:28:44;2.70;99.90
5899;DHT22;2975;50.956;6.962;2022-12-05T18:31:15;2.70;99.90
5899;DHT22;2975;50.956;6.962;2022-12-05T18:33:42;2.70;99.90
5899;DHT22;2975;50.956;6.962;2022-12-05T18:36:10;2.80;99.90
5899;DHT22;2975;50.956;6.962;2022-12-05T18:38:37;2.80;99.90
5899;DHT22;2975;50.956;6.962;2022-12-05T18:41:04;2.80;99.90
5899;DHT22;2975;50.956;6.962;2022-12-05T18:43:30;2.70;99.90
5899;DHT22;2975;50.956;6.962;2022-12-05T18:45:58;2.70;99.90
5899;DHT22;2975;50.956;6.962;2022-12-05T18:48:24;2.70;99.90
5899;DHT22;2975;50.956;6.962;2022-12-05T18:50:51;2.70;99.90
5899;DHT22;2975;50.956;6.962;2022-12-05T18:53:17;2.70;99.90
5899;DHT22;2975;50.956;6.962;2022-12-05T18:55:42;2.70;99.90
5899;DHT22;2975;50.956;6.962;2022-12-05T18:58:08;2.70;99.90
5899;DHT22;2975;50.956;6.962;2022-12-05T19:00:34;2.70;99.90
5899;DHT22;2975;50.956;6.962;2022-12-05T19:03:00;2.70;99.90
5899;DHT22;2975;50.956;6.962;2022-12-05T19:05:25;2.70;99.90
5899;DHT22;2975;50.956;6.962;2022-12-05T19:07:54;2.70;99.90
5899;DHT22;2975;50.956;6.962;2022-12-05T19:10:19;2.70;99.90
5899;DHT22;2975;50.956;6.962;2022-12-05T19:12:45;2.80;99.90
5899;DHT22;2975;50.956;6.962;2022-12-05T19:15:11;2.80;99.90
5899;DHT22;2975;50.956;6.962;2022-12-05T19:17:36;2.80;99.90
5899;DHT22;2975;50.956;6.962;2022-12-05T19:20:03;2.80;99.90
5899;DHT22;2975;50.956;6.962;2022-12-05T19:22:28;2.90;99.90
5899;DHT22;2975;50.956;6.962;2022-12-05T19:24:55;2.90;99.90